createdAt,value
2023-02-02T00:00:01.963Z,5.00
2023-02-02T00:11:24.250Z,5.80
2023-02-02T00:22:04.375Z,4.50
2023-02-02T00:32:33.569Z,2.50
2023-02-02T00:43:01.925Z,1.70
2023-02-02T00:53:30.539Z,4.30
2023-02-02T01:03:59.270Z,2.40
2023-02-02T01:14:27.310Z,2.80
2023-02-02T01:35:23.219Z,4.30
2023-02-02T01:45:52.156Z,2.30
2023-02-02T02:06:51.408Z,6.10
2023-02-02T02:17:38.259Z,5.80
2023-02-02T02:28:35.566Z,5.70
2023-02-02T02:39:11.973Z,4.50
2023-02-02T02:49:47.060Z,3.30
2023-02-02T03:00:28.138Z,4.30
2023-02-02T03:10:57.951Z,5.10
2023-02-02T03:21:25.523Z,10.70
2023-02-02T03:31:53.303Z,5.70
2023-02-02T03:42:21.019Z,4.60
2023-02-02T03:52:48.759Z,7.10
2023-02-02T04:03:17.101Z,8.80
2023-02-02T04:13:44.682Z,3.50
2023-02-02T04:24:16.853Z,6.00
2023-02-02T04:34:44.458Z,7.20
2023-02-02T04:45:13.176Z,9.00
2023-02-02T04:55:41.318Z,7.10
2023-02-02T05:06:10.058Z,8.50
2023-02-02T05:16:39.748Z,4.50
2023-02-02T05:27:08.099Z,7.30
2023-02-02T05:37:36.313Z,6.10
2023-02-02T05:48:04.607Z,7.30
2023-02-02T05:58:32.863Z,4.90
2023-02-02T06:09:01.076Z,7.20
2023-02-02T06:19:29.420Z,7.90
2023-02-02T06:29:57.569Z,7.10
2023-02-02T06:40:25.742Z,7.20
2023-02-02T06:50:54.378Z,9.90
2023-02-02T07:01:22.263Z,7.70
2023-02-02T07:11:51.394Z,13.30
2023-02-02T07:22:20.385Z,10.10
2023-02-02T07:43:16.640Z,10.30
2023-02-02T07:53:48.646Z,7.80
2023-02-02T08:04:17.401Z,7.80
2023-02-02T08:25:12.023Z,9.90
2023-02-02T08:35:43.903Z,9.20
2023-02-02T08:46:14.606Z,8.30
2023-02-02T08:56:43.022Z,8.40
2023-02-02T09:07:11.311Z,9.20
2023-02-02T09:17:39.634Z,10.00
2023-02-02T09:28:07.841Z,9.70
2023-02-02T09:38:35.585Z,12.80
2023-02-02T09:49:07.845Z,12.50
2023-02-02T09:59:41.703Z,8.60
2023-02-02T10:10:18.159Z,7.70
2023-02-02T10:20:52.316Z,8.00
2023-02-02T10:31:30.995Z,4.40
2023-02-02T10:42:17.571Z,9.30
2023-02-02T10:52:49.853Z,7.40
2023-02-02T11:03:20.342Z,8.30
2023-02-02T11:13:51.958Z,6.20
2023-02-02T11:24:25.899Z,6.60
2023-02-02T11:35:15.839Z,4.50
2023-02-02T11:45:45.682Z,3.70
2023-02-02T11:56:22.258Z,7.70
2023-02-02T12:06:50.501Z,6.90
2023-02-02T12:17:31.826Z,5.00
2023-02-02T12:28:06.401Z,6.10
2023-02-02T12:38:55.481Z,7.20
2023-02-02T12:49:45.620Z,6.30
2023-02-02T13:00:39.657Z,5.10
2023-02-02T13:11:30.143Z,4.40
2023-02-02T13:22:00.273Z,5.50
2023-02-02T13:32:31.628Z,7.30
2023-02-02T13:43:10.155Z,3.10
2023-02-02T13:53:53.618Z,4.40
2023-02-02T14:04:28.732Z,5.30
2023-02-02T14:14:56.381Z,4.20
2023-02-02T14:26:05.326Z,5.20
2023-02-02T14:36:33.439Z,4.60
2023-02-02T14:57:32.629Z,8.80
2023-02-02T15:08:23.460Z,6.40
2023-02-02T15:18:57.714Z,6.10
2023-02-02T15:29:43.888Z,6.40
2023-02-02T15:40:21.688Z,8.30
2023-02-02T15:50:54.721Z,7.30
2023-02-02T16:01:25.331Z,7.30
2023-02-02T16:11:53.437Z,5.60
2023-02-02T16:22:25.504Z,9.10
2023-02-02T16:32:53.105Z,6.60
2023-02-02T16:43:22.193Z,9.10
2023-02-02T16:53:58.031Z,9.90
2023-02-02T17:04:29.074Z,13.30
2023-02-02T17:14:59.485Z,10.60
2023-02-02T17:25:32.545Z,12.20
2023-02-02T17:36:00.051Z,8.20
2023-02-02T17:46:31.135Z,9.10
2023-02-02T17:56:58.736Z,12.20
2023-02-02T18:07:26.622Z,13.30
2023-02-02T18:17:55.265Z,15.30
2023-02-02T18:28:22.959Z,14.60
2023-02-02T18:38:52.878Z,10.10
2023-02-02T18:49:20.645Z,12.30
2023-02-02T18:59:48.357Z,10.10
2023-02-02T19:10:17.354Z,9.00
2023-02-02T19:20:45.825Z,13.20
2023-02-02T19:31:17.229Z,11.20
2023-02-02T19:41:45.084Z,10.10
2023-02-02T19:52:19.527Z,8.10
2023-02-02T20:02:57.341Z,7.80
2023-02-02T20:13:35.151Z,10.40
2023-02-02T20:24:02.889Z,7.90
2023-02-02T20:34:33.537Z,4.80
2023-02-02T20:45:01.110Z,8.20
2023-02-02T20:55:30.093Z,6.80
2023-02-02T21:05:58.347Z,7.40
2023-02-02T21:16:26.099Z,10.10
2023-02-02T21:26:54.282Z,7.60
2023-02-02T21:47:52.987Z,10.70
2023-02-02T21:58:26.788Z,7.00
2023-02-02T22:08:55.854Z,6.60
2023-02-02T22:19:35.771Z,8.90
2023-02-02T22:30:15.427Z,7.60
2023-02-02T22:40:43.283Z,6.80
2023-02-02T22:51:11.067Z,8.70
2023-02-02T23:01:39.325Z,9.50
2023-02-02T23:12:08.110Z,7.60
2023-02-02T23:22:36.312Z,5.30
2023-02-02T23:33:04.578Z,6.40
2023-02-02T23:43:32.944Z,5.90
2023-02-02T23:54:01.857Z,6.10
